sensor_id;sensor_type;location;lat;lon;timestamp;P1;durP1;ratioP1;P2;durP2;ratioP2
76939;SDS011;65885;55.848;35.916;2023-08-08T00:01:15;4.65;;;2.47;;
76939;SDS011;65885;55.848;35.916;2023-08-08T00:03:42;2.95;;;2.30;;
76939;SDS011;65885;55.848;35.916;2023-08-08T00:06:09;3.65;;;2.40;;
76939;SDS011;65885;55.848;35.916;2023-08-08T00:08:37;5.05;;;2.65;;
76939;SDS011;65885;55.848;35.916;2023-08-08T00:11:04;4.45;;;3.05;;
76939;SDS011;65885;55.848;35.916;2023-08-08T00:13:31;3.35;;;2.47;;
76939;SDS011;65885;55.848;35.916;2023-08-08T00:15:59;3.15;;;2.60;;
76939;SDS011;65885;55.848;35.916;2023-08-08T00:18:29;3.17;;;2.83;;
76939;SDS011;65885;55.848;35.916;2023-08-08T00:20:56;3.65;;;2.75;;
76939;SDS011;65885;55.848;35.916;2023-08-08T00:23:23;6.15;;;2.95;;
76939;SDS011;65885;55.848;35.916;2023-08-08T00:25:51;2.92;;;2.60;;
76939;SDS011;65885;55.848;35.916;2023-08-08T00:28:18;2.42;;;2.20;;
76939;SDS011;65885;55.848;35.916;2023-08-08T00:30:45;2.88;;;2.58;;
76939;SDS011;65885;55.848;35.916;2023-08-08T00:33:13;3.67;;;2.80;;
76939;SDS011;65885;55.848;35.916;2023-08-08T00:35:41;2.78;;;2.33;;
76939;SDS011;65885;55.848;35.916;2023-08-08T00:38:10;3.72;;;2.47;;
76939;SDS011;65885;55.848;35.916;2023-08-08T00:40:37;3.47;;;2.63;;
76939;SDS011;65885;55.848;35.916;2023-08-08T00:43:04;3.92;;;2.70;;
76939;SDS011;65885;55.848;35.916;2023-08-08T00:45:32;4.70;;;2.88;;
76939;SDS011;65885;55.848;35.916;2023-08-08T00:48:00;2.60;;;2.40;;
76939;SDS011;65885;55.848;35.916;2023-08-08T00:50:27;4.65;;;3.20;;
76939;SDS011;65885;55.848;35.916;2023-08-08T00:52:56;6.47;;;3.08;;
76939;SDS011;65885;55.848;35.916;2023-08-08T00:55:24;2.90;;;2.50;;
76939;SDS011;65885;55.848;35.916;2023-08-08T00:57:51;2.72;;;2.42;;
76939;SDS011;65885;55.848;35.916;2023-08-08T01:00:19;3.22;;;2.60;;
76939;SDS011;65885;55.848;35.916;2023-08-08T01:02:47;4.03;;;2.45;;
76939;SDS011;65885;55.848;35.916;2023-08-08T01:05:14;6.40;;;2.55;;
76939;SDS011;65885;55.848;35.916;2023-08-08T01:07:43;4.35;;;2.47;;
76939;SDS011;65885;55.848;35.916;2023-08-08T01:10:20;2.70;;;2.38;;
76939;SDS011;65885;55.848;35.916;2023-08-08T01:12:52;3.65;;;2.42;;
76939;SDS011;65885;55.848;35.916;2023-08-08T01:15:22;2.70;;;2.50;;
76939;SDS011;65885;55.848;35.916;2023-08-08T01:17:51;4.00;;;2.63;;
76939;SDS011;65885;55.848;35.916;2023-08-08T01:20:19;3.63;;;2.67;;
76939;SDS011;65885;55.848;35.916;2023-08-08T01:22:50;3.03;;;2.72;;
76939;SDS011;65885;55.848;35.916;2023-08-08T01:25:24;4.18;;;2.38;;
76939;SDS011;65885;55.848;35.916;2023-08-08T01:27:51;2.85;;;2.65;;
76939;SDS011;65885;55.848;35.916;2023-08-08T01:30:19;3.60;;;3.30;;
76939;SDS011;65885;55.848;35.916;2023-08-08T01:32:46;2.47;;;2.28;;
76939;SDS011;65885;55.848;35.916;2023-08-08T01:35:14;4.28;;;2.83;;
76939;SDS011;65885;55.848;35.916;2023-08-08T01:37:43;3.78;;;2.63;;
76939;SDS011;65885;55.848;35.916;2023-08-08T01:40:14;3.28;;;2.60;;
76939;SDS011;65885;55.848;35.916;2023-08-08T01:42:47;3.28;;;2.90;;
76939;SDS011;65885;55.848;35.916;2023-08-08T01:45:15;3.08;;;2.70;;
76939;SDS011;65885;55.848;35.916;2023-08-08T01:47:42;4.78;;;2.63;;
76939;SDS011;65885;55.848;35.916;2023-08-08T01:50:10;2.97;;;2.63;;
76939;SDS011;65885;55.848;35.916;2023-08-08T01:52:37;3.72;;;2.80;;
76939;SDS011;65885;55.848;35.916;2023-08-08T01:55:05;2.78;;;2.53;;
76939;SDS011;65885;55.848;35.916;2023-08-08T01:57:33;3.15;;;2.85;;
76939;SDS011;65885;55.848;35.916;2023-08-08T02:00:02;3.85;;;2.78;;
76939;SDS011;65885;55.848;35.916;2023-08-08T02:02:31;3.78;;;2.90;;
76939;SDS011;65885;55.848;35.916;2023-08-08T02:05:01;3.38;;;2.60;;
76939;SDS011;65885;55.848;35.916;2023-08-08T02:07:29;3.22;;;2.70;;
76939;SDS011;65885;55.848;35.916;2023-08-08T02:09:57;3.13;;;2.45;;
76939;SDS011;65885;55.848;35.916;2023-08-08T02:12:24;2.60;;;2.40;;
76939;SDS011;65885;55.848;35.916;2023-08-08T02:14:52;3.10;;;2.65;;
76939;SDS011;65885;55.848;35.916;2023-08-08T02:17:21;3.42;;;2.70;;
76939;SDS011;65885;55.848;35.916;2023-08-08T02:19:48;4.10;;;2.60;;
76939;SDS011;65885;55.848;35.916;2023-08-08T02:22:16;3.72;;;2.65;;
76939;SDS011;65885;55.848;35.916;2023-08-08T02:24:43;2.55;;;2.15;;
76939;SDS011;65885;55.848;35.916;2023-08-08T02:27:11;2.88;;;2.58;;
76939;SDS011;65885;55.848;35.916;2023-08-08T02:29:39;4.07;;;2.28;;
76939;SDS011;65885;55.848;35.916;2023-08-08T02:32:07;4.05;;;2.50;;
76939;SDS011;65885;55.848;35.916;2023-08-08T02:34:36;3.28;;;2.97;;
76939;SDS011;65885;55.848;35.916;2023-08-08T02:37:03;3.15;;;2.50;;
76939;SDS011;65885;55.848;35.916;2023-08-08T02:39:31;2.78;;;2.53;;
76939;SDS011;65885;55.848;35.916;2023-08-08T02:41:58;3.53;;;2.88;;
76939;SDS011;65885;55.848;35.916;2023-08-08T02:44:26;6.32;;;2.78;;
76939;SDS011;65885;55.848;35.916;2023-08-08T02:46:54;5.80;;;2.70;;
76939;SDS011;65885;55.848;35.916;2023-08-08T02:49:21;2.97;;;2.40;;
76939;SDS011;65885;55.848;35.916;2023-08-08T02:51:50;4.25;;;2.90;;
76939;SDS011;65885;55.848;35.916;2023-08-08T02:54:17;3.10;;;2.65;;
76939;SDS011;65885;55.848;35.916;2023-08-08T02:56:45;3.80;;;2.83;;
76939;SDS011;65885;55.848;35.916;2023-08-08T02:59:12;2.95;;;2.58;;
76939;SDS011;65885;55.848;35.916;2023-08-08T03:01:39;2.90;;;2.35;;
76939;SDS011;65885;55.848;35.916;2023-08-08T03:04:07;3.88;;;2.75;;
76939;SDS011;65885;55.848;35.916;2023-08-08T03:06:34;3.30;;;2.80;;
76939;SDS011;65885;55.848;35.916;2023-08-08T03:09:03;2.50;;;2.30;;
76939;SDS011;65885;55.848;35.916;2023-08-08T03:11:31;3.58;;;2.92;;
76939;SDS011;65885;55.848;35.916;2023-08-08T03:13:58;2.90;;;2.70;;
76939;SDS011;65885;55.848;35.916;2023-08-08T03:16:25;3.78;;;2.67;;
76939;SDS011;65885;55.848;35.916;2023-08-08T03:18:53;3.10;;;2.70;;
76939;SDS011;65885;55.848;35.916;2023-08-08T03:21:20;3.83;;;2.80;;
76939;SDS011;65885;55.848;35.916;2023-08-08T03:23:48;3.45;;;2.30;;
76939;SDS011;65885;55.848;35.916;2023-08-08T03:26:16;2.90;;;2.55;;
76939;SDS011;65885;55.848;35.916;2023-08-08T03:28:44;3.67;;;2.90;;
76939;SDS011;65885;55.848;35.916;2023-08-08T03:31:15;3.70;;;2.75;;
76939;SDS011;65885;55.848;35.916;2023-08-08T03:33:43;3.95;;;2.83;;
76939;SDS011;65885;55.848;35.916;2023-08-08T03:36:10;4.07;;;2.97;;
76939;SDS011;65885;55.848;35.916;2023-08-08T03:38:38;3.22;;;2.72;;
76939;SDS011;65885;55.848;35.916;2023-08-08T03:41:05;3.80;;;3.10;;
76939;SDS011;65885;55.848;35.916;2023-08-08T03:43:35;4.10;;;3.13;;
76939;SDS011;65885;55.848;35.916;2023-08-08T03:46:02;3.17;;;2.88;;
76939;SDS011;65885;55.848;35.916;2023-08-08T03:48:29;4.15;;;2.80;;
76939;SDS011;65885;55.848;35.916;2023-08-08T03:50:56;3.67;;;2.63;;
76939;SDS011;65885;55.848;35.916;2023-08-08T03:53:24;3.08;;;2.78;;
76939;SDS011;65885;55.848;35.916;2023-08-08T03:55:51;3.67;;;2.90;;
76939;SDS011;65885;55.848;35.916;2023-08-08T03:58:18;4.43;;;2.90;;
76939;SDS011;65885;55.848;35.916;2023-08-08T04:00:47;2.55;;;2.35;;
76939;SDS011;65885;55.848;35.916;2023-08-08T04:03:15;3.10;;;2.78;;
76939;SDS011;65885;55.848;35.916;2023-08-08T04:05:43;3.13;;;2.83;;
76939;SDS011;65885;55.848;35.916;2023-08-08T04:08:12;5.68;;;2.80;;
76939;SDS011;65885;55.848;35.916;2023-08-08T04:10:40;3.63;;;3.33;;
76939;SDS011;65885;55.848;35.916;2023-08-08T04:13:08;3.97;;;3.30;;
76939;SDS011;65885;55.848;35.916;2023-08-08T04:15:36;5.75;;;3.03;;
76939;SDS011;65885;55.848;35.916;2023-08-08T04:18:05;3.58;;;3.28;;
76939;SDS011;65885;55.848;35.916;2023-08-08T04:20:32;3.65;;;2.92;;
76939;SDS011;65885;55.848;35.916;2023-08-08T04:23:01;3.97;;;2.92;;
76939;SDS011;65885;55.848;35.916;2023-08-08T04:25:29;3.50;;;3.17;;
76939;SDS011;65885;55.848;35.916;2023-08-08T04:27:57;3.97;;;3.10;;
76939;SDS011;65885;55.848;35.916;2023-08-08T04:30:24;4.13;;;2.63;;
76939;SDS011;65885;55.848;35.916;2023-08-08T04:32:51;3.90;;;3.33;;
76939;SDS011;65885;55.848;35.916;2023-08-08T04:35:20;3.55;;;2.92;;
76939;SDS011;65885;55.848;35.916;2023-08-08T04:37:48;3.95;;;3.13;;
76939;SDS011;65885;55.848;35.916;2023-08-08T04:40:15;4.65;;;3.50;;
76939;SDS011;65885;55.848;35.916;2023-08-08T04:42:42;3.35;;;3.00;;
76939;SDS011;65885;55.848;35.916;2023-08-08T04:45:10;4.50;;;3.05;;
76939;SDS011;65885;55.848;35.916;2023-08-08T04:47:38;4.57;;;2.80;;
76939;SDS011;65885;55.848;35.916;2023-08-08T04:50:05;3.42;;;2.80;;
76939;SDS011;65885;55.848;35.916;2023-08-08T04:52:35;2.83;;;2.60;;
76939;SDS011;65885;55.848;35.916;2023-08-08T04:55:02;3.50;;;2.70;;
76939;SDS011;65885;55.848;35.916;2023-08-08T04:57:30;3.38;;;3.08;;
76939;SDS011;65885;55.848;35.916;2023-08-08T04:59:57;3.25;;;2.95;;
76939;SDS011;65885;55.848;35.916;2023-08-08T05:02:29;2.80;;;2.55;;
76939;SDS011;65885;55.848;35.916;2023-08-08T05:04:56;3.35;;;2.67;;
76939;SDS011;65885;55.848;35.916;2023-08-08T05:07:24;3.40;;;2.85;;
76939;SDS011;65885;55.848;35.916;2023-08-08T05:09:53;3.28;;;2.67;;
76939;SDS011;65885;55.848;35.916;2023-08-08T05:12:20;3.10;;;2.80;;
76939;SDS011;65885;55.848;35.916;2023-08-08T05:14:47;3.33;;;2.97;;
76939;SDS011;65885;55.848;35.916;2023-08-08T05:17:15;4.20;;;3.28;;
76939;SDS011;65885;55.848;35.916;2023-08-08T05:19:42;4.53;;;3.13;;
76939;SDS011;65885;55.848;35.916;2023-08-08T05:22:09;3.90;;;3.28;;
76939;SDS011;65885;55.848;35.916;2023-08-08T05:24:37;3.85;;;2.90;;
76939;SDS011;65885;55.848;35.916;2023-08-08T05:27:06;3.25;;;2.95;;
76939;SDS011;65885;55.848;35.916;2023-08-08T05:29:33;3.95;;;3.30;;
76939;SDS011;65885;55.848;35.916;2023-08-08T05:32:04;4.80;;;3.00;;
76939;SDS011;65885;55.848;35.916;2023-08-08T05:34:32;3.42;;;3.13;;
76939;SDS011;65885;55.848;35.916;2023-08-08T05:37:00;3.78;;;3.47;;
76939;SDS011;65885;55.848;35.916;2023-08-08T05:39:27;4.63;;;3.33;;
76939;SDS011;65885;55.848;35.916;2023-08-08T05:41:55;3.22;;;2.92;;
76939;SDS011;65885;55.848;35.916;2023-08-08T05:44:23;4.88;;;3.20;;
76939;SDS011;65885;55.848;35.916;2023-08-08T05:46:51;5.35;;;3.05;;
76939;SDS011;65885;55.848;35.916;2023-08-08T05:49:19;4.28;;;3.20;;
76939;SDS011;65885;55.848;35.916;2023-08-08T05:51:46;3.05;;;2.58;;
76939;SDS011;65885;55.848;35.916;2023-08-08T05:54:13;3.30;;;2.67;;
76939;SDS011;65885;55.848;35.916;2023-08-08T05:56:41;3.90;;;3.17;;
76939;SDS011;65885;55.848;35.916;2023-08-08T05:59:08;3.72;;;3.33;;
76939;SDS011;65885;55.848;35.916;2023-08-08T06:01:37;3.40;;;3.10;;
76939;SDS011;65885;55.848;35.916;2023-08-08T06:04:04;4.38;;;3.40;;
76939;SDS011;65885;55.848;35.916;2023-08-08T06:06:32;4.93;;;3.20;;
76939;SDS011;65885;55.848;35.916;2023-08-08T06:08:59;3.50;;;3.20;;
76939;SDS011;65885;55.848;35.916;2023-08-08T06:11:26;4.07;;;3.35;;
76939;SDS011;65885;55.848;35.916;2023-08-08T06:13:54;3.58;;;2.92;;
76939;SDS011;65885;55.848;35.916;2023-08-08T06:16:21;2.95;;;2.67;;
76939;SDS011;65885;55.848;35.916;2023-08-08T06:18:51;3.92;;;2.95;;
76939;SDS011;65885;55.848;35.916;2023-08-08T06:21:18;3.00;;;2.55;;
76939;SDS011;65885;55.848;35.916;2023-08-08T06:23:46;3.33;;;3.03;;
76939;SDS011;65885;55.848;35.916;2023-08-08T06:26:14;4.68;;;2.95;;
76939;SDS011;65885;55.848;35.916;2023-08-08T06:28:41;3.30;;;3.05;;
76939;SDS011;65885;55.848;35.916;2023-08-08T06:31:09;5.38;;;2.85;;
76939;SDS011;65885;55.848;35.916;2023-08-08T06:33:36;4.20;;;2.75;;
76939;SDS011;65885;55.848;35.916;2023-08-08T06:36:06;3.70;;;3.20;;
76939;SDS011;65885;55.848;35.916;2023-08-08T06:38:33;3.30;;;2.80;;
76939;SDS011;65885;55.848;35.916;2023-08-08T06:41:00;3.63;;;3.08;;
76939;SDS011;65885;55.848;35.916;2023-08-08T06:43:29;3.55;;;3.22;;
76939;SDS011;65885;55.848;35.916;2023-08-08T06:45:56;4.55;;;3.03;;
76939;SDS011;65885;55.848;35.916;2023-08-08T06:48:24;3.00;;;2.67;;
76939;SDS011;65885;55.848;35.916;2023-08-08T06:50:52;3.25;;;2.80;;
76939;SDS011;65885;55.848;35.916;2023-08-08T06:53:20;3.67;;;2.42;;
76939;SDS011;65885;55.848;35.916;2023-08-08T06:55:48;4.07;;;2.67;;
76939;SDS011;65885;55.848;35.916;2023-08-08T06:58:16;3.78;;;2.97;;
76939;SDS011;65885;55.848;35.916;2023-08-08T07:00:44;2.90;;;2.70;;
76939;SDS011;65885;55.848;35.916;2023-08-08T07:03:11;6.03;;;2.67;;
76939;SDS011;65885;55.848;35.916;2023-08-08T07:05:39;3.33;;;2.67;;
76939;SDS011;65885;55.848;35.916;2023-08-08T07:08:06;3.30;;;2.80;;
76939;SDS011;65885;55.848;35.916;2023-08-08T07:10:35;3.50;;;2.88;;
76939;SDS011;65885;55.848;35.916;2023-08-08T07:13:03;3.33;;;3.03;;
76939;SDS011;65885;55.848;35.916;2023-08-08T07:15:31;3.97;;;3.10;;
76939;SDS011;65885;55.848;35.916;2023-08-08T07:17:58;4.15;;;3.75;;
76939;SDS011;65885;55.848;35.916;2023-08-08T07:20:26;4.00;;;2.72;;
76939;SDS011;65885;55.848;35.916;2023-08-08T07:22:54;3.95;;;2.90;;
76939;SDS011;65885;55.848;35.916;2023-08-08T07:25:22;3.25;;;2.80;;
76939;SDS011;65885;55.848;35.916;2023-08-08T07:27:50;3.65;;;2.85;;
76939;SDS011;65885;55.848;35.916;2023-08-08T07:30:18;2.95;;;2.55;;
76939;SDS011;65885;55.848;35.916;2023-08-08T07:32:45;3.15;;;2.85;;
76939;SDS011;65885;55.848;35.916;2023-08-08T07:35:13;3.85;;;2.53;;
76939;SDS011;65885;55.848;35.916;2023-08-08T07:37:41;3.05;;;2.45;;
76939;SDS011;65885;55.848;35.916;2023-08-08T07:40:14;3.30;;;2.55;;
76939;SDS011;65885;55.848;35.916;2023-08-08T07:42:43;2.65;;;2.45;;
76939;SDS011;65885;55.848;35.916;2023-08-08T07:45:12;3.13;;;2.40;;
76939;SDS011;65885;55.848;35.916;2023-08-08T07:47:39;2.72;;;2.47;;
76939;SDS011;65885;55.848;35.916;2023-08-08T07:50:07;2.72;;;2.33;;
76939;SDS011;65885;55.848;35.916;2023-08-08T07:52:35;2.85;;;2.30;;
76939;SDS011;65885;55.848;35.916;2023-08-08T07:55:04;5.78;;;2.67;;
76939;SDS011;65885;55.848;35.916;2023-08-08T07:57:32;2.65;;;2.28;;
76939;SDS011;65885;55.848;35.916;2023-08-08T08:00:01;2.78;;;2.30;;
76939;SDS011;65885;55.848;35.916;2023-08-08T08:02:38;3.83;;;2.50;;
76939;SDS011;65885;55.848;35.916;2023-08-08T08:05:06;2.88;;;2.20;;
76939;SDS011;65885;55.848;35.916;2023-08-08T08:07:34;2.70;;;2.17;;
76939;SDS011;65885;55.848;35.916;2023-08-08T08:10:03;2.50;;;2.30;;
76939;SDS011;65885;55.848;35.916;2023-08-08T08:12:32;2.92;;;2.42;;
76939;SDS011;65885;55.848;35.916;2023-08-08T08:14:59;3.35;;;2.30;;
76939;SDS011;65885;55.848;35.916;2023-08-08T08:17:31;3.70;;;2.45;;
76939;SDS011;65885;55.848;35.916;2023-08-08T08:20:00;3.47;;;2.17;;
76939;SDS011;65885;55.848;35.916;2023-08-08T08:22:31;2.38;;;2.17;;
76939;SDS011;65885;55.848;35.916;2023-08-08T08:24:59;2.50;;;2.30;;
76939;SDS011;65885;55.848;35.916;2023-08-08T08:27:28;2.65;;;2.45;;
76939;SDS011;65885;55.848;35.916;2023-08-08T08:29:56;3.47;;;2.10;;
76939;SDS011;65885;55.848;35.916;2023-08-08T08:32:23;2.35;;;2.08;;
76939;SDS011;65885;55.848;35.916;2023-08-08T08:34:50;2.60;;;2.10;;
76939;SDS011;65885;55.848;35.916;2023-08-08T08:37:19;2.10;;;1.90;;
76939;SDS011;65885;55.848;35.916;2023-08-08T08:39:46;3.10;;;2.63;;
76939;SDS011;65885;55.848;35.916;2023-08-08T08:42:14;2.55;;;2.30;;
76939;SDS011;65885;55.848;35.916;2023-08-08T08:44:42;2.70;;;2.40;;
76939;SDS011;65885;55.848;35.916;2023-08-08T08:47:09;2.85;;;2.40;;
76939;SDS011;65885;55.848;35.916;2023-08-08T08:49:39;2.67;;;2.47;;
76939;SDS011;65885;55.848;35.916;2023-08-08T08:52:11;2.30;;;2.10;;
76939;SDS011;65885;55.848;35.916;2023-08-08T08:54:41;2.10;;;1.90;;
76939;SDS011;65885;55.848;35.916;2023-08-08T08:57:08;3.15;;;1.73;;
76939;SDS011;65885;55.848;35.916;2023-08-08T08:59:36;1.83;;;1.70;;
76939;SDS011;65885;55.848;35.916;2023-08-08T09:02:04;2.53;;;1.77;;
76939;SDS011;65885;55.848;35.916;2023-08-08T09:04:32;2.33;;;1.98;;
76939;SDS011;65885;55.848;35.916;2023-08-08T09:07:01;2.05;;;1.70;;
76939;SDS011;65885;55.848;35.916;2023-08-08T09:09:31;2.08;;;1.40;;
76939;SDS011;65885;55.848;35.916;2023-08-08T09:12:01;2.30;;;2.10;;
76939;SDS011;65885;55.848;35.916;2023-08-08T09:14:30;2.05;;;1.70;;
76939;SDS011;65885;55.848;35.916;2023-08-08T09:16:58;1.73;;;1.55;;
76939;SDS011;65885;55.848;35.916;2023-08-08T09:19:25;1.30;;;1.20;;
76939;SDS011;65885;55.848;35.916;2023-08-08T09:21:53;1.50;;;1.40;;
76939;SDS011;65885;55.848;35.916;2023-08-08T09:24:20;2.08;;;1.73;;
76939;SDS011;65885;55.848;35.916;2023-08-08T09:26:47;1.50;;;1.40;;
76939;SDS011;65885;55.848;35.916;2023-08-08T09:29:16;1.58;;;1.48;;
76939;SDS011;65885;55.848;35.916;2023-08-08T09:31:45;1.55;;;1.45;;
76939;SDS011;65885;55.848;35.916;2023-08-08T09:34:13;1.60;;;1.40;;
76939;SDS011;65885;55.848;35.916;2023-08-08T09:36:41;2.05;;;1.40;;
76939;SDS011;65885;55.848;35.916;2023-08-08T09:39:09;1.42;;;1.33;;
76939;SDS011;65885;55.848;35.916;2023-08-08T09:41:37;1.70;;;1.17;;
76939;SDS011;65885;55.848;35.916;2023-08-08T09:44:07;1.60;;;1.10;;
76939;SDS011;65885;55.848;35.916;2023-08-08T09:46:36;1.42;;;1.30;;
76939;SDS011;65885;55.848;35.916;2023-08-08T09:49:05;1.27;;;1.17;;
76939;SDS011;65885;55.848;35.916;2023-08-08T09:51:33;1.33;;;1.20;;
76939;SDS011;65885;55.848;35.916;2023-08-08T09:54:00;1.40;;;1.30;;
76939;SDS011;65885;55.848;35.916;2023-08-08T09:56:31;1.05;;;0.95;;
76939;SDS011;65885;55.848;35.916;2023-08-08T09:59:00;1.48;;;1.20;;
76939;SDS011;65885;55.848;35.916;2023-08-08T10:01:29;1.85;;;1.00;;
76939;SDS011;65885;55.848;35.916;2023-08-08T10:04:00;1.55;;;1.10;;
76939;SDS011;65885;55.848;35.916;2023-08-08T10:06:29;1.45;;;0.90;;
76939;SDS011;65885;55.848;35.916;2023-08-08T10:08:57;1.10;;;1.00;;
76939;SDS011;65885;55.848;35.916;2023-08-08T10:11:25;1.60;;;0.70;;
76939;SDS011;65885;55.848;35.916;2023-08-08T10:13:54;2.75;;;0.95;;
76939;SDS011;65885;55.848;35.916;2023-08-08T10:16:22;1.15;;;0.90;;
76939;SDS011;65885;55.848;35.916;2023-08-08T10:18:54;0.60;;;0.60;;
76939;SDS011;65885;55.848;35.916;2023-08-08T10:21:24;0.93;;;0.55;;
76939;SDS011;65885;55.848;35.916;2023-08-08T10:24:01;1.45;;;0.73;;
76939;SDS011;65885;55.848;35.916;2023-08-08T10:26:32;1.73;;;0.95;;
76939;SDS011;65885;55.848;35.916;2023-08-08T10:29:00;0.70;;;0.70;;
76939;SDS011;65885;55.848;35.916;2023-08-08T10:31:33;0.88;;;0.80;;
76939;SDS011;65885;55.848;35.916;2023-08-08T10:34:02;1.02;;;0.82;;
76939;SDS011;65885;55.848;35.916;2023-08-08T10:36:44;1.05;;;0.80;;
76939;SDS011;65885;55.848;35.916;2023-08-08T10:39:16;1.60;;;1.05;;
76939;SDS011;65885;55.848;35.916;2023-08-08T10:41:45;0.60;;;0.60;;
76939;SDS011;65885;55.848;35.916;2023-08-08T10:44:13;1.10;;;1.00;;
76939;SDS011;65885;55.848;35.916;2023-08-08T10:46:47;0.88;;;0.65;;
76939;SDS011;65885;55.848;35.916;2023-08-08T10:49:16;1.15;;;0.80;;
76939;SDS011;65885;55.848;35.916;2023-08-08T10:51:46;1.13;;;0.80;;
76939;SDS011;65885;55.848;35.916;2023-08-08T10:56:47;0.68;;;0.57;;
76939;SDS011;65885;55.848;35.916;2023-08-08T10:59:15;0.75;;;0.60;;
76939;SDS011;65885;55.848;35.916;2023-08-08T11:01:45;0.80;;;0.60;;
76939;SDS011;65885;55.848;35.916;2023-08-08T11:04:15;0.68;;;0.68;;
76939;SDS011;65885;55.848;35.916;2023-08-08T11:06:43;1.00;;;0.88;;
76939;SDS011;65885;55.848;35.916;2023-08-08T11:09:13;0.60;;;0.60;;
76939;SDS011;65885;55.848;35.916;2023-08-08T11:11:41;0.60;;;0.50;;
76939;SDS011;65885;55.848;35.916;2023-08-08T11:14:11;0.45;;;0.45;;
76939;SDS011;65885;55.848;35.916;2023-08-08T11:16:40;0.70;;;0.70;;
76939;SDS011;65885;55.848;35.916;2023-08-08T11:19:08;0.95;;;0.70;;
76939;SDS011;65885;55.848;35.916;2023-08-08T11:21:36;0.88;;;0.80;;
76939;SDS011;65885;55.848;35.916;2023-08-08T11:24:07;0.80;;;0.75;;
76939;SDS011;65885;55.848;35.916;2023-08-08T11:26:37;1.00;;;0.82;;
76939;SDS011;65885;55.848;35.916;2023-08-08T11:29:06;0.85;;;0.70;;
76939;SDS011;65885;55.848;35.916;2023-08-08T11:31:34;0.75;;;0.60;;
76939;SDS011;65885;55.848;35.916;2023-08-08T11:34:02;1.92;;;0.80;;
76939;SDS011;65885;55.848;35.916;2023-08-08T11:36:32;0.80;;;0.70;;
76939;SDS011;65885;55.848;35.916;2023-08-08T11:39:01;0.80;;;0.80;;
76939;SDS011;65885;55.848;35.916;2023-08-08T11:41:35;0.88;;;0.65;;
76939;SDS011;65885;55.848;35.916;2023-08-08T11:44:03;0.68;;;0.68;;
76939;SDS011;65885;55.848;35.916;2023-08-08T11:46:31;0.77;;;0.60;;
76939;SDS011;65885;55.848;35.916;2023-08-08T11:49:02;0.50;;;0.50;;
76939;SDS011;65885;55.848;35.916;2023-08-08T11:51:32;0.80;;;0.70;;
76939;SDS011;65885;55.848;35.916;2023-08-08T11:54:01;0.88;;;0.80;;
76939;SDS011;65885;55.848;35.916;2023-08-08T11:56:32;2.17;;;1.10;;
76939;SDS011;65885;55.848;35.916;2023-08-08T11:59:02;2.10;;;1.42;;
76939;SDS011;65885;55.848;35.916;2023-08-08T12:01:32;1.35;;;0.90;;
76939;SDS011;65885;55.848;35.916;2023-08-08T12:04:04;0.90;;;0.70;;
76939;SDS011;65885;55.848;35.916;2023-08-08T12:06:33;0.80;;;0.70;;
76939;SDS011;65885;55.848;35.916;2023-08-08T12:09:03;0.75;;;0.65;;
76939;SDS011;65885;55.848;35.916;2023-08-08T12:11:33;0.80;;;0.57;;
76939;SDS011;65885;55.848;35.916;2023-08-08T12:14:03;0.60;;;0.57;;
76939;SDS011;65885;55.848;35.916;2023-08-08T12:16:33;0.90;;;0.60;;
76939;SDS011;65885;55.848;35.916;2023-08-08T12:19:01;1.42;;;0.68;;
76939;SDS011;65885;55.848;35.916;2023-08-08T12:21:28;0.68;;;0.57;;
76939;SDS011;65885;55.848;35.916;2023-08-08T12:23:56;0.50;;;0.50;;
76939;SDS011;65885;55.848;35.916;2023-08-08T12:26:23;0.70;;;0.57;;
76939;SDS011;65885;55.848;35.916;2023-08-08T12:28:51;0.55;;;0.47;;
76939;SDS011;65885;55.848;35.916;2023-08-08T12:31:20;1.02;;;0.50;;
76939;SDS011;65885;55.848;35.916;2023-08-08T12:33:48;0.60;;;0.60;;
76939;SDS011;65885;55.848;35.916;2023-08-08T12:36:15;0.80;;;0.60;;
76939;SDS011;65885;55.848;35.916;2023-08-08T12:38:43;0.82;;;0.50;;
76939;SDS011;65885;55.848;35.916;2023-08-08T12:41:11;0.47;;;0.47;;
76939;SDS011;65885;55.848;35.916;2023-08-08T12:43:38;0.77;;;0.60;;
76939;SDS011;65885;55.848;35.916;2023-08-08T12:46:06;0.65;;;0.40;;
76939;SDS011;65885;55.848;35.916;2023-08-08T12:48:35;0.38;;;0.35;;
76939;SDS011;65885;55.848;35.916;2023-08-08T12:51:03;0.55;;;0.55;;
76939;SDS011;65885;55.848;35.916;2023-08-08T12:53:30;0.77;;;0.50;;
76939;SDS011;65885;55.848;35.916;2023-08-08T12:55:57;0.70;;;0.55;;
76939;SDS011;65885;55.848;35.916;2023-08-08T12:58:25;0.60;;;0.60;;
76939;SDS011;65885;55.848;35.916;2023-08-08T13:00:52;0.93;;;0.70;;
76939;SDS011;65885;55.848;35.916;2023-08-08T13:03:20;0.88;;;0.88;;
76939;SDS011;65885;55.848;35.916;2023-08-08T13:05:48;0.93;;;0.70;;
76939;SDS011;65885;55.848;35.916;2023-08-08T13:08:16;0.75;;;0.60;;
76939;SDS011;65885;55.848;35.916;2023-08-08T13:10:43;0.43;;;0.40;;
76939;SDS011;65885;55.848;35.916;2023-08-08T13:13:11;1.20;;;0.73;;
76939;SDS011;65885;55.848;35.916;2023-08-08T13:15:38;1.55;;;1.17;;
76939;SDS011;65885;55.848;35.916;2023-08-08T13:18:06;1.63;;;1.23;;
76939;SDS011;65885;55.848;35.916;2023-08-08T13:20:33;0.73;;;0.55;;
76939;SDS011;65885;55.848;35.916;2023-08-08T13:23:02;0.77;;;0.50;;
76939;SDS011;65885;55.848;35.916;2023-08-08T13:25:30;0.43;;;0.43;;
76939;SDS011;65885;55.848;35.916;2023-08-08T13:27:59;0.30;;;0.30;;
76939;SDS011;65885;55.848;35.916;2023-08-08T13:30:28;0.30;;;0.28;;
76939;SDS011;65885;55.848;35.916;2023-08-08T13:32:55;0.45;;;0.28;;
76939;SDS011;65885;55.848;35.916;2023-08-08T13:35:23;0.70;;;0.52;;
76939;SDS011;65885;55.848;35.916;2023-08-08T13:37:50;0.73;;;0.40;;
76939;SDS011;65885;55.848;35.916;2023-08-08T13:40:21;2.38;;;0.32;;
76939;SDS011;65885;55.848;35.916;2023-08-08T13:42:49;0.60;;;0.50;;
76939;SDS011;65885;55.848;35.916;2023-08-08T13:45:16;1.02;;;0.50;;
76939;SDS011;65885;55.848;35.916;2023-08-08T13:47:44;0.63;;;0.32;;
76939;SDS011;65885;55.848;35.916;2023-08-08T13:50:12;0.50;;;0.40;;
76939;SDS011;65885;55.848;35.916;2023-08-08T13:52:40;0.70;;;0.52;;
76939;SDS011;65885;55.848;35.916;2023-08-08T13:55:07;0.77;;;0.50;;
76939;SDS011;65885;55.848;35.916;2023-08-08T13:57:36;0.50;;;0.40;;
76939;SDS011;65885;55.848;35.916;2023-08-08T14:00:05;0.30;;;0.30;;
76939;SDS011;65885;55.848;35.916;2023-08-08T14:02:36;0.30;;;0.30;;
76939;SDS011;65885;55.848;35.916;2023-08-08T14:05:04;0.40;;;0.22;;
76939;SDS011;65885;55.848;35.916;2023-08-08T14:07:32;0.30;;;0.30;;
76939;SDS011;65885;55.848;35.916;2023-08-08T14:10:00;0.55;;;0.20;;
76939;SDS011;65885;55.848;35.916;2023-08-08T14:12:29;0.10;;;0.10;;
76939;SDS011;65885;55.848;35.916;2023-08-08T14:14:58;1.27;;;0.30;;
76939;SDS011;65885;55.848;35.916;2023-08-08T14:17:26;0.55;;;0.38;;
76939;SDS011;65885;55.848;35.916;2023-08-08T14:19:53;0.40;;;0.30;;
76939;SDS011;65885;55.848;35.916;2023-08-08T14:22:21;0.35;;;0.35;;
76939;SDS011;65885;55.848;35.916;2023-08-08T14:24:48;0.73;;;0.30;;
76939;SDS011;65885;55.848;35.916;2023-08-08T14:27:15;0.47;;;0.30;;
76939;SDS011;65885;55.848;35.916;2023-08-08T14:29:43;0.40;;;0.30;;
76939;SDS011;65885;55.848;35.916;2023-08-08T14:32:12;0.20;;;0.20;;
76939;SDS011;65885;55.848;35.916;2023-08-08T14:34:39;0.45;;;0.30;;
76939;SDS011;65885;55.848;35.916;2023-08-08T14:37:07;0.40;;;0.35;;
76939;SDS011;65885;55.848;35.916;2023-08-08T14:39:34;0.47;;;0.30;;
76939;SDS011;65885;55.848;35.916;2023-08-08T14:42:02;0.10;;;0.10;;